sensor_id;sensor_type;location;lat;lon;timestamp;P1;durP1;ratioP1;P2;durP2;ratioP2
63346;SDS011;49472;49.880;8.650;2023-12-04T00:02:21;30.97;;;24.40;;
63346;SDS011;49472;49.880;8.650;2023-12-04T00:04:46;33.67;;;25.90;;
63346;SDS011;49472;49.880;8.650;2023-12-04T00:07:11;31.73;;;24.90;;
63346;SDS011;49472;49.880;8.650;2023-12-04T00:09:37;34.10;;;26.20;;
63346;SDS011;49472;49.880;8.650;2023-12-04T00:12:02;30.37;;;24.87;;
63346;SDS011;49472;49.880;8.650;2023-12-04T00:14:27;31.70;;;25.70;;
63346;SDS011;49472;49.880;8.650;2023-12-04T00:16:52;31.97;;;24.43;;
63346;SDS011;49472;49.880;8.650;2023-12-04T00:19:19;34.40;;;25.03;;
63346;SDS011;49472;49.880;8.650;2023-12-04T00:21:44;31.90;;;24.40;;
63346;SDS011;49472;49.880;8.650;2023-12-04T00:24:09;32.50;;;24.70;;
63346;SDS011;49472;49.880;8.650;2023-12-04T00:26:37;34.47;;;25.30;;
63346;SDS011;49472;49.880;8.650;2023-12-04T00:29:02;29.83;;;23.77;;
63346;SDS011;49472;49.880;8.650;2023-12-04T00:31:28;30.93;;;24.90;;
63346;SDS011;49472;49.880;8.650;2023-12-04T00:33:53;33.70;;;24.53;;
63346;SDS011;49472;49.880;8.650;2023-12-04T00:36:18;32.30;;;23.73;;
63346;SDS011;49472;49.880;8.650;2023-12-04T00:38:44;33.93;;;27.17;;
63346;SDS011;49472;49.880;8.650;2023-12-04T00:41:10;38.70;;;26.50;;
63346;SDS011;49472;49.880;8.650;2023-12-04T00:43:35;37.00;;;25.70;;
63346;SDS011;49472;49.880;8.650;2023-12-04T00:46:00;31.53;;;24.37;;
63346;SDS011;49472;49.880;8.650;2023-12-04T00:48:26;29.17;;;22.97;;
63346;SDS011;49472;49.880;8.650;2023-12-04T00:50:51;32.70;;;24.83;;
63346;SDS011;49472;49.880;8.650;2023-12-04T00:53:16;34.77;;;25.70;;
63346;SDS011;49472;49.880;8.650;2023-12-04T00:55:41;32.30;;;24.00;;
63346;SDS011;49472;49.880;8.650;2023-12-04T00:58:07;30.37;;;24.43;;
63346;SDS011;49472;49.880;8.650;2023-12-04T01:00:32;42.53;;;25.63;;
63346;SDS011;49472;49.880;8.650;2023-12-04T01:03:17;37.13;;;25.37;;
63346;SDS011;49472;49.880;8.650;2023-12-04T01:05:42;35.50;;;26.13;;
63346;SDS011;49472;49.880;8.650;2023-12-04T01:08:07;36.20;;;25.83;;
63346;SDS011;49472;49.880;8.650;2023-12-04T01:10:33;33.77;;;24.80;;
63346;SDS011;49472;49.880;8.650;2023-12-04T01:12:58;31.80;;;25.67;;
63346;SDS011;49472;49.880;8.650;2023-12-04T01:15:25;33.50;;;24.70;;
63346;SDS011;49472;49.880;8.650;2023-12-04T01:17:50;28.50;;;24.13;;
63346;SDS011;49472;49.880;8.650;2023-12-04T01:20:16;34.27;;;26.37;;
63346;SDS011;49472;49.880;8.650;2023-12-04T01:22:41;32.97;;;26.03;;
63346;SDS011;49472;49.880;8.650;2023-12-04T01:25:06;30.57;;;24.90;;
63346;SDS011;49472;49.880;8.650;2023-12-04T01:27:32;30.97;;;25.23;;
63346;SDS011;49472;49.880;8.650;2023-12-04T01:30:00;30.80;;;24.90;;
63346;SDS011;49472;49.880;8.650;2023-12-04T01:32:25;35.83;;;25.40;;
63346;SDS011;49472;49.880;8.650;2023-12-04T01:34:50;31.10;;;24.10;;
63346;SDS011;49472;49.880;8.650;2023-12-04T01:37:15;33.93;;;24.73;;
63346;SDS011;49472;49.880;8.650;2023-12-04T01:39:42;33.80;;;25.83;;
63346;SDS011;49472;49.880;8.650;2023-12-04T01:42:07;29.90;;;24.50;;
63346;SDS011;49472;49.880;8.650;2023-12-04T01:44:32;30.20;;;24.27;;
63346;SDS011;49472;49.880;8.650;2023-12-04T01:46:57;31.90;;;23.50;;
63346;SDS011;49472;49.880;8.650;2023-12-04T01:49:23;31.60;;;24.63;;
63346;SDS011;49472;49.880;8.650;2023-12-04T01:51:49;34.20;;;26.30;;
63346;SDS011;49472;49.880;8.650;2023-12-04T01:54:15;31.00;;;24.47;;
63346;SDS011;49472;49.880;8.650;2023-12-04T01:56:41;33.80;;;25.13;;
63346;SDS011;49472;49.880;8.650;2023-12-04T01:59:06;32.63;;;25.00;;
63346;SDS011;49472;49.880;8.650;2023-12-04T02:01:31;28.20;;;22.87;;
63346;SDS011;49472;49.880;8.650;2023-12-04T02:03:57;30.53;;;23.90;;
63346;SDS011;49472;49.880;8.650;2023-12-04T02:06:22;28.87;;;23.70;;
63346;SDS011;49472;49.880;8.650;2023-12-04T02:08:47;33.43;;;23.90;;
63346;SDS011;49472;49.880;8.650;2023-12-04T02:11:13;30.10;;;23.87;;
63346;SDS011;49472;49.880;8.650;2023-12-04T02:13:38;42.43;;;26.87;;
63346;SDS011;49472;49.880;8.650;2023-12-04T02:16:04;28.67;;;24.00;;
63346;SDS011;49472;49.880;8.650;2023-12-04T02:18:33;32.70;;;25.10;;
63346;SDS011;49472;49.880;8.650;2023-12-04T02:21:00;28.67;;;23.60;;
63346;SDS011;49472;49.880;8.650;2023-12-04T02:23:27;32.40;;;25.00;;
63346;SDS011;49472;49.880;8.650;2023-12-04T02:25:53;29.63;;;23.00;;
63346;SDS011;49472;49.880;8.650;2023-12-04T02:28:21;34.53;;;25.47;;
63346;SDS011;49472;49.880;8.650;2023-12-04T02:30:46;29.70;;;24.63;;
63346;SDS011;49472;49.880;8.650;2023-12-04T02:33:15;35.43;;;23.90;;
63346;SDS011;49472;49.880;8.650;2023-12-04T02:35:43;32.67;;;22.90;;
63346;SDS011;49472;49.880;8.650;2023-12-04T02:38:08;32.10;;;24.80;;
63346;SDS011;49472;49.880;8.650;2023-12-04T02:40:35;30.97;;;23.30;;
63346;SDS011;49472;49.880;8.650;2023-12-04T02:43:00;28.60;;;23.23;;
63346;SDS011;49472;49.880;8.650;2023-12-04T02:45:26;30.17;;;22.80;;
63346;SDS011;49472;49.880;8.650;2023-12-04T02:47:51;31.57;;;24.43;;
63346;SDS011;49472;49.880;8.650;2023-12-04T02:50:16;31.43;;;23.60;;
63346;SDS011;49472;49.880;8.650;2023-12-04T02:52:41;26.73;;;22.53;;
63346;SDS011;49472;49.880;8.650;2023-12-04T02:55:07;27.10;;;22.80;;
63346;SDS011;49472;49.880;8.650;2023-12-04T02:57:32;28.07;;;23.97;;
63346;SDS011;49472;49.880;8.650;2023-12-04T02:59:57;27.60;;;22.50;;
63346;SDS011;49472;49.880;8.650;2023-12-04T03:02:22;26.67;;;22.47;;
63346;SDS011;49472;49.880;8.650;2023-12-04T03:04:48;27.87;;;23.00;;
63346;SDS011;49472;49.880;8.650;2023-12-04T03:07:13;27.80;;;23.20;;
63346;SDS011;49472;49.880;8.650;2023-12-04T03:09:38;30.00;;;23.93;;
63346;SDS011;49472;49.880;8.650;2023-12-04T03:12:03;28.77;;;22.23;;
63346;SDS011;49472;49.880;8.650;2023-12-04T03:14:29;28.60;;;21.30;;
63346;SDS011;49472;49.880;8.650;2023-12-04T03:16:54;25.00;;;22.30;;
63346;SDS011;49472;49.880;8.650;2023-12-04T03:19:19;28.57;;;23.43;;
63346;SDS011;49472;49.880;8.650;2023-12-04T03:21:44;29.83;;;23.23;;
63346;SDS011;49472;49.880;8.650;2023-12-04T03:24:10;32.03;;;24.37;;
63346;SDS011;49472;49.880;8.650;2023-12-04T03:26:35;30.80;;;23.93;;
63346;SDS011;49472;49.880;8.650;2023-12-04T03:29:00;26.67;;;20.97;;
63346;SDS011;49472;49.880;8.650;2023-12-04T03:31:25;28.70;;;21.90;;
63346;SDS011;49472;49.880;8.650;2023-12-04T03:33:51;32.63;;;24.23;;
63346;SDS011;49472;49.880;8.650;2023-12-04T03:36:16;28.67;;;23.30;;
63346;SDS011;49472;49.880;8.650;2023-12-04T03:38:42;28.60;;;22.93;;
63346;SDS011;49472;49.880;8.650;2023-12-04T03:41:14;28.70;;;24.07;;
63346;SDS011;49472;49.880;8.650;2023-12-04T03:43:40;30.17;;;23.87;;
63346;SDS011;49472;49.880;8.650;2023-12-04T03:46:06;27.87;;;23.20;;
63346;SDS011;49472;49.880;8.650;2023-12-04T03:48:31;28.27;;;22.93;;
63346;SDS011;49472;49.880;8.650;2023-12-04T03:50:56;30.67;;;24.47;;
63346;SDS011;49472;49.880;8.650;2023-12-04T03:53:21;31.67;;;23.53;;
63346;SDS011;49472;49.880;8.650;2023-12-04T03:55:47;27.37;;;21.90;;
63346;SDS011;49472;49.880;8.650;2023-12-04T03:58:12;29.90;;;23.67;;
63346;SDS011;49472;49.880;8.650;2023-12-04T04:00:37;27.83;;;22.73;;
63346;SDS011;49472;49.880;8.650;2023-12-04T04:03:06;30.47;;;24.13;;
63346;SDS011;49472;49.880;8.650;2023-12-04T04:05:31;27.10;;;23.07;;
63346;SDS011;49472;49.880;8.650;2023-12-04T04:07:59;29.40;;;23.23;;
63346;SDS011;49472;49.880;8.650;2023-12-04T04:10:24;31.20;;;22.47;;
63346;SDS011;49472;49.880;8.650;2023-12-04T04:12:49;30.70;;;22.77;;
63346;SDS011;49472;49.880;8.650;2023-12-04T04:15:15;31.03;;;23.83;;
63346;SDS011;49472;49.880;8.650;2023-12-04T04:17:42;34.20;;;23.33;;
63346;SDS011;49472;49.880;8.650;2023-12-04T04:20:07;32.40;;;24.13;;
63346;SDS011;49472;49.880;8.650;2023-12-04T04:22:33;28.03;;;22.50;;
63346;SDS011;49472;49.880;8.650;2023-12-04T04:25:02;30.80;;;23.80;;
63346;SDS011;49472;49.880;8.650;2023-12-04T04:27:29;36.10;;;24.93;;
63346;SDS011;49472;49.880;8.650;2023-12-04T04:30:00;27.63;;;23.10;;
63346;SDS011;49472;49.880;8.650;2023-12-04T04:32:25;31.23;;;24.70;;
63346;SDS011;49472;49.880;8.650;2023-12-04T04:34:50;30.07;;;23.50;;
63346;SDS011;49472;49.880;8.650;2023-12-04T04:37:15;31.53;;;24.40;;
63346;SDS011;49472;49.880;8.650;2023-12-04T04:39:40;30.63;;;23.63;;
63346;SDS011;49472;49.880;8.650;2023-12-04T04:42:06;31.77;;;23.93;;
63346;SDS011;49472;49.880;8.650;2023-12-04T04:44:31;29.90;;;25.40;;
63346;SDS011;49472;49.880;8.650;2023-12-04T04:46:56;31.50;;;24.20;;
63346;SDS011;49472;49.880;8.650;2023-12-04T04:49:21;33.43;;;24.53;;
63346;SDS011;49472;49.880;8.650;2023-12-04T04:51:47;31.80;;;24.63;;
63346;SDS011;49472;49.880;8.650;2023-12-04T04:54:12;32.57;;;24.50;;
63346;SDS011;49472;49.880;8.650;2023-12-04T04:56:37;32.13;;;25.87;;
63346;SDS011;49472;49.880;8.650;2023-12-04T04:59:02;32.40;;;24.83;;
63346;SDS011;49472;49.880;8.650;2023-12-04T05:01:27;33.50;;;26.50;;
63346;SDS011;49472;49.880;8.650;2023-12-04T05:03:53;33.07;;;25.57;;
63346;SDS011;49472;49.880;8.650;2023-12-04T05:06:19;31.37;;;25.03;;
63346;SDS011;49472;49.880;8.650;2023-12-04T05:08:44;35.77;;;26.67;;
63346;SDS011;49472;49.880;8.650;2023-12-04T05:11:09;32.63;;;25.10;;
63346;SDS011;49472;49.880;8.650;2023-12-04T05:13:34;30.43;;;25.00;;
63346;SDS011;49472;49.880;8.650;2023-12-04T05:15:59;27.63;;;23.83;;
63346;SDS011;49472;49.880;8.650;2023-12-04T05:18:25;31.03;;;26.10;;
63346;SDS011;49472;49.880;8.650;2023-12-04T05:20:50;32.03;;;25.70;;
63346;SDS011;49472;49.880;8.650;2023-12-04T05:23:15;34.17;;;25.67;;
63346;SDS011;49472;49.880;8.650;2023-12-04T05:25:41;31.03;;;23.53;;
63346;SDS011;49472;49.880;8.650;2023-12-04T05:28:06;34.13;;;27.10;;
63346;SDS011;49472;49.880;8.650;2023-12-04T05:30:31;31.00;;;23.87;;
63346;SDS011;49472;49.880;8.650;2023-12-04T05:32:56;33.10;;;23.90;;
63346;SDS011;49472;49.880;8.650;2023-12-04T05:35:22;33.23;;;25.10;;
63346;SDS011;49472;49.880;8.650;2023-12-04T05:37:47;33.87;;;25.43;;
63346;SDS011;49472;49.880;8.650;2023-12-04T05:40:13;31.10;;;24.47;;
63346;SDS011;49472;49.880;8.650;2023-12-04T05:42:38;34.13;;;24.93;;
63346;SDS011;49472;49.880;8.650;2023-12-04T05:45:03;35.17;;;25.30;;
63346;SDS011;49472;49.880;8.650;2023-12-04T05:47:29;32.23;;;24.07;;
63346;SDS011;49472;49.880;8.650;2023-12-04T05:49:54;33.40;;;25.90;;
63346;SDS011;49472;49.880;8.650;2023-12-04T05:52:19;32.90;;;25.00;;
63346;SDS011;49472;49.880;8.650;2023-12-04T05:54:45;31.67;;;24.80;;
63346;SDS011;49472;49.880;8.650;2023-12-04T05:57:10;33.93;;;25.80;;
63346;SDS011;49472;49.880;8.650;2023-12-04T05:59:35;31.13;;;24.03;;
63346;SDS011;49472;49.880;8.650;2023-12-04T06:02:01;32.00;;;25.07;;
63346;SDS011;49472;49.880;8.650;2023-12-04T06:04:26;32.80;;;25.60;;
63346;SDS011;49472;49.880;8.650;2023-12-04T06:06:51;27.60;;;23.67;;
63346;SDS011;49472;49.880;8.650;2023-12-04T06:09:16;36.60;;;25.83;;
63346;SDS011;49472;49.880;8.650;2023-12-04T06:11:44;32.53;;;25.20;;
63346;SDS011;49472;49.880;8.650;2023-12-04T06:14:09;30.03;;;24.00;;
63346;SDS011;49472;49.880;8.650;2023-12-04T06:16:34;30.30;;;24.93;;
63346;SDS011;49472;49.880;8.650;2023-12-04T06:18:59;29.50;;;23.50;;
63346;SDS011;49472;49.880;8.650;2023-12-04T06:21:24;29.50;;;23.87;;
63346;SDS011;49472;49.880;8.650;2023-12-04T06:23:50;29.50;;;24.93;;
63346;SDS011;49472;49.880;8.650;2023-12-04T06:26:15;30.37;;;24.57;;
63346;SDS011;49472;49.880;8.650;2023-12-04T06:28:42;31.63;;;25.57;;
63346;SDS011;49472;49.880;8.650;2023-12-04T06:31:07;30.60;;;24.77;;
63346;SDS011;49472;49.880;8.650;2023-12-04T06:33:33;32.57;;;24.30;;
63346;SDS011;49472;49.880;8.650;2023-12-04T06:35:58;30.20;;;24.67;;
63346;SDS011;49472;49.880;8.650;2023-12-04T06:38:24;29.57;;;24.60;;
63346;SDS011;49472;49.880;8.650;2023-12-04T06:40:50;34.73;;;26.20;;
63346;SDS011;49472;49.880;8.650;2023-12-04T06:43:16;32.90;;;26.10;;
63346;SDS011;49472;49.880;8.650;2023-12-04T06:45:45;29.97;;;25.03;;
63346;SDS011;49472;49.880;8.650;2023-12-04T06:48:12;32.37;;;25.13;;
63346;SDS011;49472;49.880;8.650;2023-12-04T06:50:39;31.43;;;24.17;;
63346;SDS011;49472;49.880;8.650;2023-12-04T06:53:05;31.17;;;25.13;;
63346;SDS011;49472;49.880;8.650;2023-12-04T06:55:30;33.33;;;24.93;;
63346;SDS011;49472;49.880;8.650;2023-12-04T06:57:55;31.90;;;24.80;;
63346;SDS011;49472;49.880;8.650;2023-12-04T07:00:20;31.70;;;24.37;;
63346;SDS011;49472;49.880;8.650;2023-12-04T07:02:46;31.80;;;25.50;;
63346;SDS011;49472;49.880;8.650;2023-12-04T07:05:11;27.03;;;24.00;;
63346;SDS011;49472;49.880;8.650;2023-12-04T07:07:36;31.57;;;24.00;;
63346;SDS011;49472;49.880;8.650;2023-12-04T07:10:01;28.97;;;24.83;;
63346;SDS011;49472;49.880;8.650;2023-12-04T07:12:27;31.03;;;24.47;;
63346;SDS011;49472;49.880;8.650;2023-12-04T07:14:52;42.80;;;25.30;;
63346;SDS011;49472;49.880;8.650;2023-12-04T07:17:17;28.43;;;24.23;;
63346;SDS011;49472;49.880;8.650;2023-12-04T07:19:43;27.83;;;22.87;;
63346;SDS011;49472;49.880;8.650;2023-12-04T07:22:08;32.00;;;23.73;;
63346;SDS011;49472;49.880;8.650;2023-12-04T07:24:33;32.43;;;25.33;;
63346;SDS011;49472;49.880;8.650;2023-12-04T07:26:58;31.40;;;25.20;;
63346;SDS011;49472;49.880;8.650;2023-12-04T07:29:24;29.27;;;25.13;;
63346;SDS011;49472;49.880;8.650;2023-12-04T07:31:49;27.67;;;23.10;;
63346;SDS011;49472;49.880;8.650;2023-12-04T07:34:14;44.60;;;24.47;;
63346;SDS011;49472;49.880;8.650;2023-12-04T07:36:39;29.37;;;23.77;;
63346;SDS011;49472;49.880;8.650;2023-12-04T07:39:04;27.00;;;22.53;;
63346;SDS011;49472;49.880;8.650;2023-12-04T07:41:31;33.43;;;25.57;;
63346;SDS011;49472;49.880;8.650;2023-12-04T07:43:56;27.23;;;23.10;;
63346;SDS011;49472;49.880;8.650;2023-12-04T07:46:22;29.50;;;23.87;;
63346;SDS011;49472;49.880;8.650;2023-12-04T07:48:47;29.30;;;23.40;;
63346;SDS011;49472;49.880;8.650;2023-12-04T07:51:12;31.77;;;24.93;;
63346;SDS011;49472;49.880;8.650;2023-12-04T07:53:38;31.50;;;23.40;;
63346;SDS011;49472;49.880;8.650;2023-12-04T07:56:03;26.70;;;23.47;;
63346;SDS011;49472;49.880;8.650;2023-12-04T07:58:29;31.13;;;24.63;;
63346;SDS011;49472;49.880;8.650;2023-12-04T08:00:54;24.87;;;22.23;;
63346;SDS011;49472;49.880;8.650;2023-12-04T08:03:22;29.40;;;23.00;;
63346;SDS011;49472;49.880;8.650;2023-12-04T08:05:48;24.93;;;22.33;;
63346;SDS011;49472;49.880;8.650;2023-12-04T08:08:14;32.57;;;24.47;;
63346;SDS011;49472;49.880;8.650;2023-12-04T08:10:40;27.47;;;22.50;;
63346;SDS011;49472;49.880;8.650;2023-12-04T08:13:05;25.70;;;22.70;;
63346;SDS011;49472;49.880;8.650;2023-12-04T08:15:30;35.70;;;23.00;;
63346;SDS011;49472;49.880;8.650;2023-12-04T08:17:55;28.17;;;23.77;;
63346;SDS011;49472;49.880;8.650;2023-12-04T08:20:23;27.90;;;23.47;;
63346;SDS011;49472;49.880;8.650;2023-12-04T08:22:48;27.20;;;23.40;;
63346;SDS011;49472;49.880;8.650;2023-12-04T08:25:14;24.77;;;22.07;;
63346;SDS011;49472;49.880;8.650;2023-12-04T08:27:40;25.87;;;22.80;;
63346;SDS011;49472;49.880;8.650;2023-12-04T08:30:05;28.37;;;23.00;;
63346;SDS011;49472;49.880;8.650;2023-12-04T08:32:31;28.47;;;23.67;;
63346;SDS011;49472;49.880;8.650;2023-12-04T08:34:57;28.87;;;23.70;;
63346;SDS011;49472;49.880;8.650;2023-12-04T08:37:22;28.83;;;24.20;;
63346;SDS011;49472;49.880;8.650;2023-12-04T08:39:50;28.60;;;24.07;;
63346;SDS011;49472;49.880;8.650;2023-12-04T08:42:15;30.90;;;23.87;;
63346;SDS011;49472;49.880;8.650;2023-12-04T08:44:40;26.60;;;22.67;;
63346;SDS011;49472;49.880;8.650;2023-12-04T08:47:05;31.40;;;23.10;;
63346;SDS011;49472;49.880;8.650;2023-12-04T08:49:31;28.10;;;23.00;;
63346;SDS011;49472;49.880;8.650;2023-12-04T08:51:57;29.83;;;23.30;;
63346;SDS011;49472;49.880;8.650;2023-12-04T08:54:23;25.93;;;21.77;;
63346;SDS011;49472;49.880;8.650;2023-12-04T08:56:48;25.00;;;22.30;;
63346;SDS011;49472;49.880;8.650;2023-12-04T08:59:14;27.53;;;23.50;;
63346;SDS011;49472;49.880;8.650;2023-12-04T09:01:39;25.90;;;22.90;;
63346;SDS011;49472;49.880;8.650;2023-12-04T09:04:04;31.10;;;23.30;;
63346;SDS011;49472;49.880;8.650;2023-12-04T09:06:29;24.20;;;21.60;;
63346;SDS011;49472;49.880;8.650;2023-12-04T09:08:54;27.63;;;22.10;;
63346;SDS011;49472;49.880;8.650;2023-12-04T09:11:20;28.90;;;22.23;;
63346;SDS011;49472;49.880;8.650;2023-12-04T09:13:45;26.70;;;21.90;;
63346;SDS011;49472;49.880;8.650;2023-12-04T09:16:10;22.27;;;19.90;;
63346;SDS011;49472;49.880;8.650;2023-12-04T09:18:35;25.53;;;22.73;;
63346;SDS011;49472;49.880;8.650;2023-12-04T09:21:06;24.30;;;20.67;;
63346;SDS011;49472;49.880;8.650;2023-12-04T09:23:34;24.07;;;21.57;;
63346;SDS011;49472;49.880;8.650;2023-12-04T09:25:59;24.33;;;21.00;;
63346;SDS011;49472;49.880;8.650;2023-12-04T09:28:24;24.20;;;21.53;;
63346;SDS011;49472;49.880;8.650;2023-12-04T09:30:50;22.70;;;20.40;;
63346;SDS011;49472;49.880;8.650;2023-12-04T09:33:16;31.07;;;23.90;;
63346;SDS011;49472;49.880;8.650;2023-12-04T09:35:41;24.13;;;21.53;;
63346;SDS011;49472;49.880;8.650;2023-12-04T09:38:07;23.70;;;21.37;;
63346;SDS011;49472;49.880;8.650;2023-12-04T09:40:32;26.33;;;21.03;;
63346;SDS011;49472;49.880;8.650;2023-12-04T09:42:57;24.03;;;21.33;;
63346;SDS011;49472;49.880;8.650;2023-12-04T09:45:24;24.93;;;21.07;;
63346;SDS011;49472;49.880;8.650;2023-12-04T09:47:50;23.83;;;21.53;;
63346;SDS011;49472;49.880;8.650;2023-12-04T09:50:18;24.43;;;21.20;;
63346;SDS011;49472;49.880;8.650;2023-12-04T09:52:49;26.20;;;20.27;;
63346;SDS011;49472;49.880;8.650;2023-12-04T09:55:15;23.17;;;20.80;;
63346;SDS011;49472;49.880;8.650;2023-12-04T09:57:41;33.33;;;21.37;;
63346;SDS011;49472;49.880;8.650;2023-12-04T10:00:07;24.33;;;21.17;;
63346;SDS011;49472;49.880;8.650;2023-12-04T10:02:35;23.33;;;20.97;;
63346;SDS011;49472;49.880;8.650;2023-12-04T10:05:02;22.33;;;20.10;;
63346;SDS011;49472;49.880;8.650;2023-12-04T10:07:30;23.40;;;21.00;;
63346;SDS011;49472;49.880;8.650;2023-12-04T10:09:56;26.40;;;19.37;;
63346;SDS011;49472;49.880;8.650;2023-12-04T10:12:25;20.90;;;19.00;;
63346;SDS011;49472;49.880;8.650;2023-12-04T10:15:11;20.20;;;18.20;;
63346;SDS011;49472;49.880;8.650;2023-12-04T10:17:36;21.40;;;19.20;;
63346;SDS011;49472;49.880;8.650;2023-12-04T10:20:15;20.60;;;18.43;;
63346;SDS011;49472;49.880;8.650;2023-12-04T10:22:52;22.00;;;19.73;;
63346;SDS011;49472;49.880;8.650;2023-12-04T10:25:21;23.77;;;21.20;;
63346;SDS011;49472;49.880;8.650;2023-12-04T10:27:46;25.40;;;22.33;;
63346;SDS011;49472;49.880;8.650;2023-12-04T10:30:28;26.27;;;22.10;;
63346;SDS011;49472;49.880;8.650;2023-12-04T10:32:56;27.27;;;21.93;;
63346;SDS011;49472;49.880;8.650;2023-12-04T10:35:23;28.47;;;22.03;;
63346;SDS011;49472;49.880;8.650;2023-12-04T10:37:49;29.83;;;23.70;;
63346;SDS011;49472;49.880;8.650;2023-12-04T10:40:22;25.00;;;21.93;;
63346;SDS011;49472;49.880;8.650;2023-12-04T10:42:48;28.73;;;21.77;;
63346;SDS011;49472;49.880;8.650;2023-12-04T10:45:13;28.13;;;22.30;;
63346;SDS011;49472;49.880;8.650;2023-12-04T10:47:39;28.50;;;21.97;;
63346;SDS011;49472;49.880;8.650;2023-12-04T10:50:04;30.03;;;22.67;;
63346;SDS011;49472;49.880;8.650;2023-12-04T10:52:34;32.63;;;22.27;;
63346;SDS011;49472;49.880;8.650;2023-12-04T10:55:01;28.87;;;22.27;;
63346;SDS011;49472;49.880;8.650;2023-12-04T10:57:27;22.60;;;20.40;;
63346;SDS011;49472;49.880;8.650;2023-12-04T10:59:58;27.63;;;23.27;;
63346;SDS011;49472;49.880;8.650;2023-12-04T11:02:27;26.60;;;21.90;;
63346;SDS011;49472;49.880;8.650;2023-12-04T11:04:57;35.33;;;23.60;;
63346;SDS011;49472;49.880;8.650;2023-12-04T11:07:23;28.67;;;24.60;;
63346;SDS011;49472;49.880;8.650;2023-12-04T11:09:49;26.83;;;23.80;;
63346;SDS011;49472;49.880;8.650;2023-12-04T11:12:15;33.60;;;25.97;;
63346;SDS011;49472;49.880;8.650;2023-12-04T11:14:44;26.67;;;23.53;;
63346;SDS011;49472;49.880;8.650;2023-12-04T11:17:13;27.23;;;24.27;;
63346;SDS011;49472;49.880;8.650;2023-12-04T11:19:40;27.13;;;23.50;;
63346;SDS011;49472;49.880;8.650;2023-12-04T11:22:08;26.07;;;22.20;;
63346;SDS011;49472;49.880;8.650;2023-12-04T11:24:35;26.50;;;23.23;;
63346;SDS011;49472;49.880;8.650;2023-12-04T11:27:00;26.43;;;23.57;;
63346;SDS011;49472;49.880;8.650;2023-12-04T11:29:26;26.37;;;23.67;;
63346;SDS011;49472;49.880;8.650;2023-12-04T11:31:52;25.73;;;22.80;;
63346;SDS011;49472;49.880;8.650;2023-12-04T11:34:17;24.97;;;21.93;;
63346;SDS011;49472;49.880;8.650;2023-12-04T11:36:42;28.80;;;25.07;;
63346;SDS011;49472;49.880;8.650;2023-12-04T11:39:09;25.23;;;22.63;;
63346;SDS011;49472;49.880;8.650;2023-12-04T11:41:35;25.67;;;22.90;;
63346;SDS011;49472;49.880;8.650;2023-12-04T11:44:03;28.20;;;24.73;;
63346;SDS011;49472;49.880;8.650;2023-12-04T11:46:28;27.10;;;23.40;;
63346;SDS011;49472;49.880;8.650;2023-12-04T11:48:56;29.20;;;23.30;;
63346;SDS011;49472;49.880;8.650;2023-12-04T11:54:12;26.13;;;23.07;;
63346;SDS011;49472;49.880;8.650;2023-12-04T11:56:38;24.83;;;22.30;;
63346;SDS011;49472;49.880;8.650;2023-12-04T11:59:04;26.77;;;23.67;;
63346;SDS011;49472;49.880;8.650;2023-12-04T12:01:37;28.13;;;22.60;;
63346;SDS011;49472;49.880;8.650;2023-12-04T12:04:05;31.33;;;24.13;;
63346;SDS011;49472;49.880;8.650;2023-12-04T12:06:31;32.57;;;23.00;;
63346;SDS011;49472;49.880;8.650;2023-12-04T12:08:56;27.87;;;23.50;;
63346;SDS011;49472;49.880;8.650;2023-12-04T12:11:22;28.20;;;24.83;;
63346;SDS011;49472;49.880;8.650;2023-12-04T12:13:48;27.50;;;22.93;;
63346;SDS011;49472;49.880;8.650;2023-12-04T12:16:13;29.27;;;24.83;;
63346;SDS011;49472;49.880;8.650;2023-12-04T12:18:40;26.33;;;23.20;;
63346;SDS011;49472;49.880;8.650;2023-12-04T12:21:05;31.17;;;25.47;;
63346;SDS011;49472;49.880;8.650;2023-12-04T12:23:30;27.70;;;23.17;;
63346;SDS011;49472;49.880;8.650;2023-12-04T12:25:55;28.43;;;25.03;;
63346;SDS011;49472;49.880;8.650;2023-12-04T12:28:21;29.70;;;24.63;;
63346;SDS011;49472;49.880;8.650;2023-12-04T12:30:46;31.53;;;23.93;;
63346;SDS011;49472;49.880;8.650;2023-12-04T12:33:15;27.53;;;24.60;;
63346;SDS011;49472;49.880;8.650;2023-12-04T12:35:40;30.97;;;24.23;;
63346;SDS011;49472;49.880;8.650;2023-12-04T12:38:06;28.37;;;25.23;;
63346;SDS011;49472;49.880;8.650;2023-12-04T12:40:32;26.37;;;23.50;;
63346;SDS011;49472;49.880;8.650;2023-12-04T12:43:04;25.60;;;22.67;;
63346;SDS011;49472;49.880;8.650;2023-12-04T12:45:30;32.50;;;25.13;;
63346;SDS011;49472;49.880;8.650;2023-12-04T12:48:03;26.60;;;23.20;;
63346;SDS011;49472;49.880;8.650;2023-12-04T12:50:29;28.33;;;24.20;;
63346;SDS011;49472;49.880;8.650;2023-12-04T12:53:01;27.83;;;23.83;;
63346;SDS011;49472;49.880;8.650;2023-12-04T12:55:27;32.80;;;25.17;;
63346;SDS011;49472;49.880;8.650;2023-12-04T12:57:52;34.10;;;26.00;;
63346;SDS011;49472;49.880;8.650;2023-12-04T13:00:17;34.77;;;24.10;;
63346;SDS011;49472;49.880;8.650;2023-12-04T13:02:45;41.20;;;25.47;;
63346;SDS011;49472;49.880;8.650;2023-12-04T13:05:10;27.10;;;23.60;;
63346;SDS011;49472;49.880;8.650;2023-12-04T13:07:36;26.67;;;23.57;;
63346;SDS011;49472;49.880;8.650;2023-12-04T13:10:01;29.90;;;24.80;;
63346;SDS011;49472;49.880;8.650;2023-12-04T13:12:30;28.33;;;25.27;;
63346;SDS011;49472;49.880;8.650;2023-12-04T13:14:55;26.40;;;23.40;;
63346;SDS011;49472;49.880;8.650;2023-12-04T13:17:20;26.40;;;23.00;;
63346;SDS011;49472;49.880;8.650;2023-12-04T13:19:45;27.30;;;24.50;;
63346;SDS011;49472;49.880;8.650;2023-12-04T13:22:10;33.63;;;24.70;;
63346;SDS011;49472;49.880;8.650;2023-12-04T13:24:36;26.40;;;23.60;;
63346;SDS011;49472;49.880;8.650;2023-12-04T13:27:01;32.00;;;24.70;;
63346;SDS011;49472;49.880;8.650;2023-12-04T13:29:26;27.00;;;23.20;;
63346;SDS011;49472;49.880;8.650;2023-12-04T13:31:51;26.00;;;23.13;;
63346;SDS011;49472;49.880;8.650;2023-12-04T13:34:17;26.77;;;23.77;;
63346;SDS011;49472;49.880;8.650;2023-12-04T13:36:42;29.37;;;25.23;;
63346;SDS011;49472;49.880;8.650;2023-12-04T13:39:07;27.20;;;23.40;;
63346;SDS011;49472;49.880;8.650;2023-12-04T13:41:42;33.20;;;25.53;;
63346;SDS011;49472;49.880;8.650;2023-12-04T13:44:26;27.30;;;24.40;;
63346;SDS011;49472;49.880;8.650;2023-12-04T13:46:51;27.67;;;24.67;;
63346;SDS011;49472;49.880;8.650;2023-12-04T13:49:17;27.63;;;23.80;;
63346;SDS011;49472;49.880;8.650;2023-12-04T13:51:44;26.70;;;23.90;;
63346;SDS011;49472;49.880;8.650;2023-12-04T13:54:09;26.60;;;24.00;;
63346;SDS011;49472;49.880;8.650;2023-12-04T13:56:45;30.87;;;24.90;;
63346;SDS011;49472;49.880;8.650;2023-12-04T13:59:18;29.30;;;24.90;;
63346;SDS011;49472;49.880;8.650;2023-12-04T14:01:45;27.23;;;23.07;;
63346;SDS011;49472;49.880;8.650;2023-12-04T14:04:10;26.23;;;23.60;;
63346;SDS011;49472;49.880;8.650;2023-12-04T14:06:35;26.40;;;23.53;;
63346;SDS011;49472;49.880;8.650;2023-12-04T14:09:00;25.97;;;23.03;;
63346;SDS011;49472;49.880;8.650;2023-12-04T14:11:26;25.40;;;22.83;;
63346;SDS011;49472;49.880;8.650;2023-12-04T14:13:51;25.23;;;22.43;;
63346;SDS011;49472;49.880;8.650;2023-12-04T14:16:16;25.20;;;21.30;;
63346;SDS011;49472;49.880;8.650;2023-12-04T14:18:41;24.43;;;22.03;;